sensor_id;sensor_type;location;lat;lon;timestamp;temperature;humidity
59893;DHT22;45758;51.052;3.740;2022-09-01T04:58:31;17.30;91.90
59893;DHT22;45758;51.052;3.740;2022-09-01T05:01:02;17.30;92.10
59893;DHT22;45758;51.052;3.740;2022-09-01T05:03:38;17.30;92.20
59893;DHT22;45758;51.052;3.740;2022-09-01T05:06:04;17.20;92.30
59893;DHT22;45758;51.052;3.740;2022-09-01T05:08:38;17.20;92.30
59893;DHT22;45758;51.052;3.740;2022-09-01T05:11:04;17.30;92.40
59893;DHT22;45758;51.052;3.740;2022-09-01T05:13:32;17.20;92.60
59893;DHT22;45758;51.052;3.740;2022-09-01T05:16:03;17.20;92.70
59893;DHT22;45758;51.052;3.740;2022-09-01T05:18:33;17.30;92.50
59893;DHT22;45758;51.052;3.740;2022-09-01T05:21:04;17.30;92.50
59893;DHT22;45758;51.052;3.740;2022-09-01T05:23:44;17.40;92.20
59893;DHT22;45758;51.052;3.740;2022-09-01T05:26:16;17.50;92.30
59893;DHT22;45758;51.052;3.740;2022-09-01T05:32:17;17.50;92.10
59893;DHT22;45758;51.052;3.740;2022-09-01T05:41:16;17.30;92.70
59893;DHT22;45758;51.052;3.740;2022-09-01T05:43:54;17.40;92.70
59893;DHT22;45758;51.052;3.740;2022-09-01T05:46:23;17.30;93.00
59893;DHT22;45758;51.052;3.740;2022-09-01T05:48:53;17.20;93.30
59893;DHT22;45758;51.052;3.740;2022-09-01T05:51:29;17.20;93.00
59893;DHT22;45758;51.052;3.740;2022-09-01T05:53:58;17.40;93.00
59893;DHT22;45758;51.052;3.740;2022-09-01T05:56:30;17.40;92.90
59893;DHT22;45758;51.052;3.740;2022-09-01T05:59:01;17.50;92.60
59893;DHT22;45758;51.052;3.740;2022-09-01T06:01:32;17.40;92.70
59893;DHT22;45758;51.052;3.740;2022-09-01T06:04:18;17.50;92.70
59893;DHT22;45758;51.052;3.740;2022-09-01T06:13:08;17.50;92.80
59893;DHT22;45758;51.052;3.740;2022-09-01T06:16:03;17.50;92.80
59893;DHT22;45758;51.052;3.740;2022-09-01T06:18:38;17.50;92.80
59893;DHT22;45758;51.052;3.740;2022-09-01T06:21:05;17.50;92.80
59893;DHT22;45758;51.052;3.740;2022-09-01T06:23:33;17.50;92.90
59893;DHT22;45758;51.052;3.740;2022-09-01T06:26:00;17.50;92.80
59893;DHT22;45758;51.052;3.740;2022-09-01T06:28:33;17.60;92.80
59893;DHT22;45758;51.052;3.740;2022-09-01T06:34:10;17.80;92.50
59893;DHT22;45758;51.052;3.740;2022-09-01T06:36:42;17.90;92.00
59893;DHT22;45758;51.052;3.740;2022-09-01T06:39:10;18.00;92.00
59893;DHT22;45758;51.052;3.740;2022-09-01T06:41:51;18.60;91.50
59893;DHT22;45758;51.052;3.740;2022-09-01T06:44:18;19.40;90.10
59893;DHT22;45758;51.052;3.740;2022-09-01T06:46:51;19.80;89.00
59893;DHT22;45758;51.052;3.740;2022-09-01T06:49:21;20.30;87.20
59893;DHT22;45758;51.052;3.740;2022-09-01T06:52:07;20.60;86.30
59893;DHT22;45758;51.052;3.740;2022-09-01T06:54:33;21.00;85.10
59893;DHT22;45758;51.052;3.740;2022-09-01T06:57:03;21.30;84.60
59893;DHT22;45758;51.052;3.740;2022-09-01T06:59:30;21.70;83.40
59893;DHT22;45758;51.052;3.740;2022-09-01T07:02:00;21.90;82.50
59893;DHT22;45758;51.052;3.740;2022-09-01T07:04:28;22.10;80.90
59893;DHT22;45758;51.052;3.740;2022-09-01T07:06:55;22.00;81.10
59893;DHT22;45758;51.052;3.740;2022-09-01T07:09:22;22.10;81.30
59893;DHT22;45758;51.052;3.740;2022-09-01T07:11:51;22.30;80.10
59893;DHT22;45758;51.052;3.740;2022-09-01T07:14:19;22.40;80.60
59893;DHT22;45758;51.052;3.740;2022-09-01T07:16:47;22.60;78.60
59893;DHT22;45758;51.052;3.740;2022-09-01T07:19:13;22.20;79.60
59893;DHT22;45758;51.052;3.740;2022-09-01T07:21:42;22.10;80.50
59893;DHT22;45758;51.052;3.740;2022-09-01T07:24:09;22.20;80.40
59893;DHT22;45758;51.052;3.740;2022-09-01T07:26:36;22.30;80.00
59893;DHT22;45758;51.052;3.740;2022-09-01T07:29:04;22.20;80.00
59893;DHT22;45758;51.052;3.740;2022-09-01T07:31:37;22.40;80.70
59893;DHT22;45758;51.052;3.740;2022-09-01T07:34:09;22.70;79.70
59893;DHT22;45758;51.052;3.740;2022-09-01T07:36:38;23.10;79.50
59893;DHT22;45758;51.052;3.740;2022-09-01T07:39:07;23.10;78.10
59893;DHT22;45758;51.052;3.740;2022-09-01T07:41:34;23.10;78.90
59893;DHT22;45758;51.052;3.740;2022-09-01T07:44:01;23.30;78.70
59893;DHT22;45758;51.052;3.740;2022-09-01T07:46:35;23.60;78.00
59893;DHT22;45758;51.052;3.740;2022-09-01T07:49:22;23.70;77.70
59893;DHT22;45758;51.052;3.740;2022-09-01T07:51:51;24.00;76.60
59893;DHT22;45758;51.052;3.740;2022-09-01T07:54:27;24.20;75.90
59893;DHT22;45758;51.052;3.740;2022-09-01T07:56:54;24.20;75.90
59893;DHT22;45758;51.052;3.740;2022-09-01T07:59:32;24.40;75.60
59893;DHT22;45758;51.052;3.740;2022-09-01T08:02:20;24.50;75.20
59893;DHT22;45758;51.052;3.740;2022-09-01T08:05:34;24.00;75.60
59893;DHT22;45758;51.052;3.740;2022-09-01T08:08:28;23.70;77.90
59893;DHT22;45758;51.052;3.740;2022-09-01T08:15:02;24.00;76.90
59893;DHT22;45758;51.052;3.740;2022-09-01T08:17:46;24.00;76.50
59893;DHT22;45758;51.052;3.740;2022-09-01T08:26:31;24.60;75.10
59893;DHT22;45758;51.052;3.740;2022-09-01T08:29:05;24.70;75.20
59893;DHT22;45758;51.052;3.740;2022-09-01T08:31:48;24.60;75.30
59893;DHT22;45758;51.052;3.740;2022-09-01T08:34:17;24.80;74.70
59893;DHT22;45758;51.052;3.740;2022-09-01T08:36:55;24.50;75.80
59893;DHT22;45758;51.052;3.740;2022-09-01T08:39:47;24.60;76.00
59893;DHT22;45758;51.052;3.740;2022-09-01T08:52:41;25.90;74.20
59893;DHT22;45758;51.052;3.740;2022-09-01T10:06:56;28.20;67.40
59893;DHT22;45758;51.052;3.740;2022-09-01T11:06:19;28.90;65.30
59893;DHT22;45758;51.052;3.740;2022-09-01T11:09:28;29.00;60.70
59893;DHT22;45758;51.052;3.740;2022-09-01T11:55:53;29.30;59.80
59893;DHT22;45758;51.052;3.740;2022-09-01T12:02:49;29.10;59.80
59893;DHT22;45758;51.052;3.740;2022-09-01T12:05:36;29.30;59.30
59893;DHT22;45758;51.052;3.740;2022-09-01T12:08:19;29.20;57.80
59893;DHT22;45758;51.052;3.740;2022-09-01T12:10:47;28.80;60.00
59893;DHT22;45758;51.052;3.740;2022-09-01T12:26:40;29.30;57.70
59893;DHT22;45758;51.052;3.740;2022-09-01T12:29:12;29.60;61.10
59893;DHT22;45758;51.052;3.740;2022-09-01T12:32:33;29.40;59.20
59893;DHT22;45758;51.052;3.740;2022-09-01T12:38:55;29.50;57.00
59893;DHT22;45758;51.052;3.740;2022-09-01T12:41:41;29.60;57.10
59893;DHT22;45758;51.052;3.740;2022-09-01T12:51:26;29.30;56.90
59893;DHT22;45758;51.052;3.740;2022-09-01T12:54:27;29.60;55.80
59893;DHT22;45758;51.052;3.740;2022-09-01T12:57:38;29.70;58.30
59893;DHT22;45758;51.052;3.740;2022-09-01T13:00:28;29.50;55.60
59893;DHT22;45758;51.052;3.740;2022-09-01T13:03:39;29.40;54.90
59893;DHT22;45758;51.052;3.740;2022-09-01T13:06:56;29.00;57.00
59893;DHT22;45758;51.052;3.740;2022-09-01T13:10:17;29.10;56.40
59893;DHT22;45758;51.052;3.740;2022-09-01T13:13:24;29.00;56.00
59893;DHT22;45758;51.052;3.740;2022-09-01T13:19:59;29.50;55.70
59893;DHT22;45758;51.052;3.740;2022-09-01T13:22:39;29.60;55.20
59893;DHT22;45758;51.052;3.740;2022-09-01T13:25:31;29.40;57.20
59893;DHT22;45758;51.052;3.740;2022-09-01T13:28:23;29.30;55.10
59893;DHT22;45758;51.052;3.740;2022-09-01T13:34:31;29.00;57.20
59893;DHT22;45758;51.052;3.740;2022-09-01T13:37:07;28.90;55.40
59893;DHT22;45758;51.052;3.740;2022-09-01T13:39:33;29.10;57.70
59893;DHT22;45758;51.052;3.740;2022-09-01T13:42:03;28.90;55.90
59893;DHT22;45758;51.052;3.740;2022-09-01T13:44:28;29.00;54.80
59893;DHT22;45758;51.052;3.740;2022-09-01T13:46:59;28.90;55.60
59893;DHT22;45758;51.052;3.740;2022-09-01T13:49:25;28.90;56.20
59893;DHT22;45758;51.052;3.740;2022-09-01T13:52:00;29.00;55.30
59893;DHT22;45758;51.052;3.740;2022-09-01T13:54:30;28.60;54.70
59893;DHT22;45758;51.052;3.740;2022-09-01T13:56:59;28.50;56.30
59893;DHT22;45758;51.052;3.740;2022-09-01T13:59:26;28.40;55.90
59893;DHT22;45758;51.052;3.740;2022-09-01T14:01:55;28.40;55.80
59893;DHT22;45758;51.052;3.740;2022-09-01T14:04:20;28.40;57.50
59893;DHT22;45758;51.052;3.740;2022-09-01T14:06:47;28.50;58.60
59893;DHT22;45758;51.052;3.740;2022-09-01T14:09:18;28.60;58.80
59893;DHT22;45758;51.052;3.740;2022-09-01T14:11:51;28.60;57.50
59893;DHT22;45758;51.052;3.740;2022-09-01T14:14:17;28.50;55.20
59893;DHT22;45758;51.052;3.740;2022-09-01T14:16:44;28.40;55.20
59893;DHT22;45758;51.052;3.740;2022-09-01T14:19:11;28.40;55.80
59893;DHT22;45758;51.052;3.740;2022-09-01T14:21:37;28.40;54.50
59893;DHT22;45758;51.052;3.740;2022-09-01T14:24:06;28.40;55.10
59893;DHT22;45758;51.052;3.740;2022-09-01T14:26:33;28.40;55.70
59893;DHT22;45758;51.052;3.740;2022-09-01T14:28:59;28.50;55.50
59893;DHT22;45758;51.052;3.740;2022-09-01T14:31:27;28.50;56.40
59893;DHT22;45758;51.052;3.740;2022-09-01T14:33:56;28.30;56.10
59893;DHT22;45758;51.052;3.740;2022-09-01T14:36:27;28.20;56.10
59893;DHT22;45758;51.052;3.740;2022-09-01T14:38:53;28.20;56.40
59893;DHT22;45758;51.052;3.740;2022-09-01T14:41:22;28.00;56.30
59893;DHT22;45758;51.052;3.740;2022-09-01T14:43:50;27.90;57.90
59893;DHT22;45758;51.052;3.740;2022-09-01T14:46:16;27.70;56.10
59893;DHT22;45758;51.052;3.740;2022-09-01T14:48:46;27.70;56.10
59893;DHT22;45758;51.052;3.740;2022-09-01T14:51:33;27.70;56.20
59893;DHT22;45758;51.052;3.740;2022-09-01T14:53:59;27.80;56.00
59893;DHT22;45758;51.052;3.740;2022-09-01T14:56:25;27.80;55.80
59893;DHT22;45758;51.052;3.740;2022-09-01T14:58:51;27.90;55.10
59893;DHT22;45758;51.052;3.740;2022-09-01T15:01:20;28.00;55.20
59893;DHT22;45758;51.052;3.740;2022-09-01T15:03:47;27.90;55.70
59893;DHT22;45758;51.052;3.740;2022-09-01T15:06:14;28.00;56.30
59893;DHT22;45758;51.052;3.740;2022-09-01T15:08:41;28.20;57.80
59893;DHT22;45758;51.052;3.740;2022-09-01T15:11:15;28.10;56.00
59893;DHT22;45758;51.052;3.740;2022-09-01T15:13:44;27.80;56.60
59893;DHT22;45758;51.052;3.740;2022-09-01T15:16:16;27.90;58.60
59893;DHT22;45758;51.052;3.740;2022-09-01T15:18:43;28.00;56.20
59893;DHT22;45758;51.052;3.740;2022-09-01T15:21:25;28.00;57.00
59893;DHT22;45758;51.052;3.740;2022-09-01T15:23:54;28.00;58.70
59893;DHT22;45758;51.052;3.740;2022-09-01T15:26:21;28.00;57.50
59893;DHT22;45758;51.052;3.740;2022-09-01T15:28:48;28.00;57.10
59893;DHT22;45758;51.052;3.740;2022-09-01T15:31:17;27.70;57.30
59893;DHT22;45758;51.052;3.740;2022-09-01T15:33:44;27.60;56.80
59893;DHT22;45758;51.052;3.740;2022-09-01T15:36:18;27.50;56.80
59893;DHT22;45758;51.052;3.740;2022-09-01T15:38:46;27.50;57.50
59893;DHT22;45758;51.052;3.740;2022-09-01T15:41:23;27.60;56.30
59893;DHT22;45758;51.052;3.740;2022-09-01T15:43:49;27.60;56.70
59893;DHT22;45758;51.052;3.740;2022-09-01T15:46:24;27.50;58.30
59893;DHT22;45758;51.052;3.740;2022-09-01T15:49:02;27.50;57.20
59893;DHT22;45758;51.052;3.740;2022-09-01T15:51:34;27.30;57.50
59893;DHT22;45758;51.052;3.740;2022-09-01T15:54:06;27.30;58.40
59893;DHT22;45758;51.052;3.740;2022-09-01T15:56:32;27.30;57.60
59893;DHT22;45758;51.052;3.740;2022-09-01T15:58:59;27.10;56.30
59893;DHT22;45758;51.052;3.740;2022-09-01T16:01:30;27.30;56.40
59893;DHT22;45758;51.052;3.740;2022-09-01T16:03:56;27.20;55.80
59893;DHT22;45758;51.052;3.740;2022-09-01T16:06:26;27.20;55.70
59893;DHT22;45758;51.052;3.740;2022-09-01T16:09:04;27.20;56.70
59893;DHT22;45758;51.052;3.740;2022-09-01T16:11:30;27.10;56.10
59893;DHT22;45758;51.052;3.740;2022-09-01T16:13:56;27.10;56.80
59893;DHT22;45758;51.052;3.740;2022-09-01T16:16:40;27.10;56.30
59893;DHT22;45758;51.052;3.740;2022-09-01T16:24:51;26.70;56.70
59893;DHT22;45758;51.052;3.740;2022-09-01T16:27:26;26.80;56.60
59893;DHT22;45758;51.052;3.740;2022-09-01T16:30:03;26.90;57.50
59893;DHT22;45758;51.052;3.740;2022-09-01T16:32:30;26.70;56.70
59893;DHT22;45758;51.052;3.740;2022-09-01T16:35:09;26.50;57.30
59893;DHT22;45758;51.052;3.740;2022-09-01T16:37:47;26.40;57.40
59893;DHT22;45758;51.052;3.740;2022-09-01T16:40:38;26.40;57.30
59893;DHT22;45758;51.052;3.740;2022-09-01T16:46:32;26.30;57.20
59893;DHT22;45758;51.052;3.740;2022-09-01T16:49:21;26.20;58.10
59893;DHT22;45758;51.052;3.740;2022-09-01T16:52:08;26.20;57.30
59893;DHT22;45758;51.052;3.740;2022-09-01T17:00:22;26.30;57.30
59893;DHT22;45758;51.052;3.740;2022-09-01T17:03:03;26.30;58.90
59893;DHT22;45758;51.052;3.740;2022-09-01T17:08:23;26.10;58.50
59893;DHT22;45758;51.052;3.740;2022-09-01T17:10:56;26.10;57.70
59893;DHT22;45758;51.052;3.740;2022-09-01T17:16:14;25.90;58.20
59893;DHT22;45758;51.052;3.740;2022-09-01T17:18:54;25.90;57.30
59893;DHT22;45758;51.052;3.740;2022-09-01T17:21:29;25.90;59.40
59893;DHT22;45758;51.052;3.740;2022-09-01T17:24:04;25.90;57.20
59893;DHT22;45758;51.052;3.740;2022-09-01T17:26:38;25.90;57.80
59893;DHT22;45758;51.052;3.740;2022-09-01T17:29:14;25.80;58.00
59893;DHT22;45758;51.052;3.740;2022-09-01T17:38:02;25.50;58.50
59893;DHT22;45758;51.052;3.740;2022-09-01T17:43:27;25.40;58.10
59893;DHT22;45758;51.052;3.740;2022-09-01T17:51:27;25.10;58.60
59893;DHT22;45758;51.052;3.740;2022-09-01T17:59:43;24.90;59.00
59893;DHT22;45758;51.052;3.740;2022-09-01T18:05:29;24.80;58.80
59893;DHT22;45758;51.052;3.740;2022-09-01T18:08:09;24.80;59.20
59893;DHT22;45758;51.052;3.740;2022-09-01T18:11:09;24.70;59.40
59893;DHT22;45758;51.052;3.740;2022-09-01T18:16:18;24.50;59.90
59893;DHT22;45758;51.052;3.740;2022-09-01T18:18:47;24.40;60.10
59893;DHT22;45758;51.052;3.740;2022-09-01T18:21:20;24.30;60.50
59893;DHT22;45758;51.052;3.740;2022-09-01T18:23:50;24.10;60.70
59893;DHT22;45758;51.052;3.740;2022-09-01T18:26:20;24.10;61.40
59893;DHT22;45758;51.052;3.740;2022-09-01T18:28:50;24.00;61.20
59893;DHT22;45758;51.052;3.740;2022-09-01T18:47:57;23.60;63.50
59893;DHT22;45758;51.052;3.740;2022-09-01T19:01:29;23.40;63.40
59893;DHT22;45758;51.052;3.740;2022-09-01T19:06:51;23.40;62.90
59893;DHT22;45758;51.052;3.740;2022-09-01T19:09:41;23.30;63.40
59893;DHT22;45758;51.052;3.740;2022-09-01T19:12:15;23.20;63.50
59893;DHT22;45758;51.052;3.740;2022-09-01T19:20:43;22.90;64.40
59893;DHT22;45758;51.052;3.740;2022-09-01T19:26:01;22.90;65.20
59893;DHT22;45758;51.052;3.740;2022-09-01T19:31:49;22.80;65.30
59893;DHT22;45758;51.052;3.740;2022-09-01T19:34:38;22.70;65.60
59893;DHT22;45758;51.052;3.740;2022-09-01T19:37:06;22.70;65.50
59893;DHT22;45758;51.052;3.740;2022-09-01T19:39:37;22.70;65.10
59893;DHT22;45758;51.052;3.740;2022-09-01T19:47:16;22.60;64.80
59893;DHT22;45758;51.052;3.740;2022-09-01T19:49:46;22.70;65.00
59893;DHT22;45758;51.052;3.740;2022-09-01T19:52:34;22.50;65.00
59893;DHT22;45758;51.052;3.740;2022-09-01T19:55:11;22.60;65.80
59893;DHT22;45758;51.052;3.740;2022-09-01T19:57:46;22.50;65.30
59893;DHT22;45758;51.052;3.740;2022-09-01T20:00:27;22.50;65.60
59893;DHT22;45758;51.052;3.740;2022-09-01T20:03:16;22.40;65.60
59893;DHT22;45758;51.052;3.740;2022-09-01T20:06:01;22.30;65.70
59893;DHT22;45758;51.052;3.740;2022-09-01T20:08:33;22.30;65.50
59893;DHT22;45758;51.052;3.740;2022-09-01T20:13:52;22.20;66.20
59893;DHT22;45758;51.052;3.740;2022-09-01T20:16:31;22.10;66.10
59893;DHT22;45758;51.052;3.740;2022-09-01T20:19:26;22.00;66.50
59893;DHT22;45758;51.052;3.740;2022-09-01T20:21:53;22.00;66.50
59893;DHT22;45758;51.052;3.740;2022-09-01T20:24:35;22.00;66.80
59893;DHT22;45758;51.052;3.740;2022-09-01T20:27:19;22.00;66.40
59893;DHT22;45758;51.052;3.740;2022-09-01T20:30:05;22.00;66.20
59893;DHT22;45758;51.052;3.740;2022-09-01T20:32:52;21.90;66.40
59893;DHT22;45758;51.052;3.740;2022-09-01T20:35:44;21.90;66.20
59893;DHT22;45758;51.052;3.740;2022-09-01T20:41:31;21.90;65.70
59893;DHT22;45758;51.052;3.740;2022-09-01T20:44:02;21.80;65.90
59893;DHT22;45758;51.052;3.740;2022-09-01T20:46:31;21.80;65.90
59893;DHT22;45758;51.052;3.740;2022-09-01T20:48:57;21.80;65.50
59893;DHT22;45758;51.052;3.740;2022-09-01T20:51:56;21.90;65.20
59893;DHT22;45758;51.052;3.740;2022-09-01T20:54:32;21.80;65.30
59893;DHT22;45758;51.052;3.740;2022-09-01T20:57:23;21.70;65.60
59893;DHT22;45758;51.052;3.740;2022-09-01T20:59:56;21.60;65.20
59893;DHT22;45758;51.052;3.740;2022-09-01T21:05:35;21.70;65.60
59893;DHT22;45758;51.052;3.740;2022-09-01T21:16:45;21.40;66.70
59893;DHT22;45758;51.052;3.740;2022-09-01T21:19:18;21.40;66.70
59893;DHT22;45758;51.052;3.740;2022-09-01T21:22:03;21.30;66.90
59893;DHT22;45758;51.052;3.740;2022-09-01T21:24:33;21.20;67.10
59893;DHT22;45758;51.052;3.740;2022-09-01T21:27:02;21.20;67.30
59893;DHT22;45758;51.052;3.740;2022-09-01T21:32:20;21.20;67.20
59893;DHT22;45758;51.052;3.740;2022-09-01T21:34:47;21.20;67.50
59893;DHT22;45758;51.052;3.740;2022-09-01T21:37:16;21.30;66.90
59893;DHT22;45758;51.052;3.740;2022-09-01T21:39:42;21.30;66.90
59893;DHT22;45758;51.052;3.740;2022-09-01T21:42:10;21.30;66.90
59893;DHT22;45758;51.052;3.740;2022-09-01T21:44:37;21.30;66.90
59893;DHT22;45758;51.052;3.740;2022-09-01T21:47:19;21.30;67.10
59893;DHT22;45758;51.052;3.740;2022-09-01T21:50:03;21.20;67.60
59893;DHT22;45758;51.052;3.740;2022-09-01T21:55:56;21.20;67.40
59893;DHT22;45758;51.052;3.740;2022-09-01T21:58:53;21.10;68.00
59893;DHT22;45758;51.052;3.740;2022-09-01T22:01:49;21.10;68.20
59893;DHT22;45758;51.052;3.740;2022-09-01T22:07:27;21.10;68.70
59893;DHT22;45758;51.052;3.740;2022-09-01T22:10:07;20.90;69.10
59893;DHT22;45758;51.052;3.740;2022-09-01T22:12:51;20.70;69.50
59893;DHT22;45758;51.052;3.740;2022-09-01T22:15:54;20.70;70.00
59893;DHT22;45758;51.052;3.740;2022-09-01T22:21:17;20.70;69.90
59893;DHT22;45758;51.052;3.740;2022-09-01T22:23:46;20.80;70.30
59893;DHT22;45758;51.052;3.740;2022-09-01T22:26:36;20.90;70.20
59893;DHT22;45758;51.052;3.740;2022-09-01T22:29:08;20.70;70.20
59893;DHT22;45758;51.052;3.740;2022-09-01T22:32:00;20.70;71.20
59893;DHT22;45758;51.052;3.740;2022-09-01T22:34:49;20.60;71.30
59893;DHT22;45758;51.052;3.740;2022-09-01T22:37:26;20.60;71.50
59893;DHT22;45758;51.052;3.740;2022-09-01T22:39:58;20.60;71.60
59893;DHT22;45758;51.052;3.740;2022-09-01T22:42:41;20.50;71.60
59893;DHT22;45758;51.052;3.740;2022-09-01T22:45:18;20.50;72.00
59893;DHT22;45758;51.052;3.740;2022-09-01T22:47:49;20.50;72.10
59893;DHT22;45758;51.052;3.740;2022-09-01T22:50:20;20.50;72.00
59893;DHT22;45758;51.052;3.740;2022-09-01T22:52:57;20.50;71.90
59893;DHT22;45758;51.052;3.740;2022-09-01T22:55:44;20.50;72.30
59893;DHT22;45758;51.052;3.740;2022-09-01T22:58:38;20.40;72.30
59893;DHT22;45758;51.052;3.740;2022-09-01T23:01:17;20.40;72.80
59893;DHT22;45758;51.052;3.740;2022-09-01T23:07:09;20.20;73.10
59893;DHT22;45758;51.052;3.740;2022-09-01T23:09:54;20.10;73.30
59893;DHT22;45758;51.052;3.740;2022-09-01T23:12:36;20.20;73.20
59893;DHT22;45758;51.052;3.740;2022-09-01T23:15:08;20.30;73.00
59893;DHT22;45758;51.052;3.740;2022-09-01T23:17:45;20.30;73.00
59893;DHT22;45758;51.052;3.740;2022-09-01T23:20:15;20.20;73.20
59893;DHT22;45758;51.052;3.740;2022-09-01T23:25:46;20.00;74.00
59893;DHT22;45758;51.052;3.740;2022-09-01T23:28:43;19.80;74.50
59893;DHT22;45758;51.052;3.740;2022-09-01T23:31:43;19.80;75.10
59893;DHT22;45758;51.052;3.740;2022-09-01T23:34:17;19.80;75.00
59893;DHT22;45758;51.052;3.740;2022-09-01T23:36:45;19.70;75.70
59893;DHT22;45758;51.052;3.740;2022-09-01T23:39:17;19.60;75.80
59893;DHT22;45758;51.052;3.740;2022-09-01T23:42:05;19.50;76.10
59893;DHT22;45758;51.052;3.740;2022-09-01T23:44:51;19.60;76.20
59893;DHT22;45758;51.052;3.740;2022-09-01T23:47:26;19.60;76.40
59893;DHT22;45758;51.052;3.740;2022-09-01T23:53:28;19.60;75.90
59893;DHT22;45758;51.052;3.740;2022-09-01T23:56:27;19.60;76.60
